sensor_id;sensor_type;location;lat;lon;timestamp;pressure;altitude;pressure_sealevel;temperature;humidity
36932;BME280;22847;42.654;23.370;2022-08-06T00:00:37;94502.28;;;22.66;55.50
36932;BME280;22847;42.654;23.370;2022-08-06T00:03:03;94513.25;;;23.06;55.14
36932;BME280;22847;42.654;23.370;2022-08-06T00:05:28;94528.72;;;22.98;55.22
36932;BME280;22847;42.654;23.370;2022-08-06T00:07:54;94523.69;;;23.08;53.84
36932;BME280;22847;42.654;23.370;2022-08-06T00:10:22;94479.50;;;22.77;53.50
36932;BME280;22847;42.654;23.370;2022-08-06T00:12:47;94499.28;;;22.81;55.96
36932;BME280;22847;42.654;23.370;2022-08-06T00:15:13;94382.09;;;22.16;53.36
36932;BME280;22847;42.654;23.370;2022-08-06T00:17:38;94536.22;;;23.19;53.47
36932;BME280;22847;42.654;23.370;2022-08-06T00:20:05;94523.19;;;22.99;55.68
36932;BME280;22847;42.654;23.370;2022-08-06T00:22:31;94253.66;;;21.02;56.79
36932;BME280;22847;42.654;23.370;2022-08-06T00:24:57;94317.75;;;21.42;57.82
36932;BME280;22847;42.654;23.370;2022-08-06T00:27:22;94485.00;;;22.39;59.31
36932;BME280;22847;42.654;23.370;2022-08-06T00:29:48;94328.00;;;21.38;59.79
36932;BME280;22847;42.654;23.370;2022-08-06T00:32:15;94474.69;;;22.49;56.61
36932;BME280;22847;42.654;23.370;2022-08-06T00:34:40;94500.44;;;22.49;59.71
36932;BME280;22847;42.654;23.370;2022-08-06T00:37:06;94527.84;;;22.67;54.00
36932;BME280;22847;42.654;23.370;2022-08-06T00:39:31;94395.59;;;22.15;55.28
36932;BME280;22847;42.654;23.370;2022-08-06T00:41:57;94556.38;;;23.27;53.35
36932;BME280;22847;42.654;23.370;2022-08-06T00:44:22;94517.09;;;23.10;53.18
36932;BME280;22847;42.654;23.370;2022-08-06T00:46:48;94353.84;;;22.04;53.88
36932;BME280;22847;42.654;23.370;2022-08-06T00:49:14;94360.28;;;21.71;57.76
36932;BME280;22847;42.654;23.370;2022-08-06T00:51:40;94483.97;;;22.58;57.02
36932;BME280;22847;42.654;23.370;2022-08-06T00:54:05;94522.38;;;22.62;59.21
36932;BME280;22847;42.654;23.370;2022-08-06T00:56:31;94484.66;;;22.54;57.34
36932;BME280;22847;42.654;23.370;2022-08-06T00:58:56;94561.06;;;22.58;58.27
36932;BME280;22847;42.654;23.370;2022-08-06T01:01:22;94320.66;;;21.09;58.93
36932;BME280;22847;42.654;23.370;2022-08-06T01:03:47;94394.97;;;21.33;60.16
36932;BME280;22847;42.654;23.370;2022-08-06T01:06:13;94477.13;;;21.90;60.22
36932;BME280;22847;42.654;23.370;2022-08-06T01:08:38;94484.88;;;21.91;60.58
36932;BME280;22847;42.654;23.370;2022-08-06T01:11:05;94340.53;;;21.00;59.47
36932;BME280;22847;42.654;23.370;2022-08-06T01:13:30;94336.28;;;21.23;58.29
36932;BME280;22847;42.654;23.370;2022-08-06T01:18:29;94349.41;;;21.36;58.87
36932;BME280;22847;42.654;23.370;2022-08-06T01:32:05;94322.63;;;21.63;54.75
36932;BME280;22847;42.654;23.370;2022-08-06T01:34:47;94486.50;;;22.72;55.10
36932;BME280;22847;42.654;23.370;2022-08-06T01:37:18;94532.56;;;22.84;54.65
36932;BME280;22847;42.654;23.370;2022-08-06T01:39:50;94512.72;;;22.86;54.49
36932;BME280;22847;42.654;23.370;2022-08-06T01:42:20;94474.22;;;22.34;54.84
36932;BME280;22847;42.654;23.370;2022-08-06T01:44:48;94319.84;;;21.08;58.88
36932;BME280;22847;42.654;23.370;2022-08-06T01:47:17;94327.72;;;21.21;57.77
36932;BME280;22847;42.654;23.370;2022-08-06T01:49:47;94521.75;;;22.60;56.34
36932;BME280;22847;42.654;23.370;2022-08-06T01:52:14;94539.13;;;22.45;59.25
36932;BME280;22847;42.654;23.370;2022-08-06T01:54:44;94509.06;;;22.26;60.31
36932;BME280;22847;42.654;23.370;2022-08-06T01:57:11;94518.00;;;22.32;59.50
36932;BME280;22847;42.654;23.370;2022-08-06T01:59:47;94491.00;;;21.92;60.52
36932;BME280;22847;42.654;23.370;2022-08-06T02:02:18;94336.19;;;21.05;59.41
36932;BME280;22847;42.654;23.370;2022-08-06T02:04:46;94513.97;;;22.04;59.56
36932;BME280;22847;42.654;23.370;2022-08-06T02:07:14;94518.97;;;21.94;61.16
36932;BME280;22847;42.654;23.370;2022-08-06T02:09:43;94508.72;;;21.98;61.32
36932;BME280;22847;42.654;23.370;2022-08-06T02:12:12;94482.00;;;21.68;60.97
36932;BME280;22847;42.654;23.370;2022-08-06T02:15:04;94513.25;;;21.91;60.79
36932;BME280;22847;42.654;23.370;2022-08-06T02:17:37;94488.41;;;21.60;60.29
36932;BME280;22847;42.654;23.370;2022-08-06T02:20:04;94532.13;;;21.83;60.25
36932;BME280;22847;42.654;23.370;2022-08-06T02:22:32;94461.88;;;21.60;60.50
36932;BME280;22847;42.654;23.370;2022-08-06T02:25:02;94480.47;;;21.54;59.36
36932;BME280;22847;42.654;23.370;2022-08-06T02:27:29;94515.00;;;21.78;60.13
36932;BME280;22847;42.654;23.370;2022-08-06T02:29:58;94490.13;;;21.73;60.57
36932;BME280;22847;42.654;23.370;2022-08-06T02:32:24;94487.38;;;21.61;61.34
36932;BME280;22847;42.654;23.370;2022-08-06T02:34:50;94441.59;;;21.41;60.08
36932;BME280;22847;42.654;23.370;2022-08-06T02:37:18;94475.72;;;21.62;60.75
36932;BME280;22847;42.654;23.370;2022-08-06T02:39:49;94257.50;;;20.18;61.07
36932;BME280;22847;42.654;23.370;2022-08-06T02:42:27;94518.72;;;21.71;60.21
36932;BME280;22847;42.654;23.370;2022-08-06T02:50:02;94469.66;;;21.80;58.52
36932;BME280;22847;42.654;23.370;2022-08-06T02:53:03;94302.66;;;20.68;59.19
36932;BME280;22847;42.654;23.370;2022-08-06T02:55:30;94524.31;;;21.88;59.85
36932;BME280;22847;42.654;23.370;2022-08-06T02:58:04;94331.44;;;20.89;59.71
36932;BME280;22847;42.654;23.370;2022-08-06T03:00:33;94502.47;;;21.86;60.01
36932;BME280;22847;42.654;23.370;2022-08-06T03:03:02;94357.81;;;20.77;59.39
36932;BME280;22847;42.654;23.370;2022-08-06T03:05:29;94510.88;;;21.58;60.10
36932;BME280;22847;42.654;23.370;2022-08-06T03:07:55;94295.72;;;20.35;59.97
36932;BME280;22847;42.654;23.370;2022-08-06T03:10:24;94493.75;;;21.54;60.40
36932;BME280;22847;42.654;23.370;2022-08-06T03:12:52;94517.91;;;21.70;60.62
36932;BME280;22847;42.654;23.370;2022-08-06T03:15:19;94524.03;;;21.71;60.33
36932;BME280;22847;42.654;23.370;2022-08-06T03:17:48;94361.16;;;20.66;60.30
36932;BME280;22847;42.654;23.370;2022-08-06T03:20:19;94503.47;;;21.35;60.82
36932;BME280;22847;42.654;23.370;2022-08-06T03:22:48;94351.84;;;20.57;60.39
36932;BME280;22847;42.654;23.370;2022-08-06T03:25:15;94524.91;;;21.65;60.93
36932;BME280;22847;42.654;23.370;2022-08-06T03:27:43;94525.41;;;21.49;61.28
36932;BME280;22847;42.654;23.370;2022-08-06T03:30:13;94443.31;;;20.98;61.66
36932;BME280;22847;42.654;23.370;2022-08-06T03:32:39;94203.75;;;19.42;61.27
36932;BME280;22847;42.654;23.370;2022-08-06T03:35:05;94459.97;;;21.11;61.27
36932;BME280;22847;42.654;23.370;2022-08-06T03:37:33;94472.63;;;21.16;61.88
36932;BME280;22847;42.654;23.370;2022-08-06T03:40:00;94316.81;;;20.11;61.62
36932;BME280;22847;42.654;23.370;2022-08-06T03:42:25;94454.69;;;21.05;61.44
36932;BME280;22847;42.654;23.370;2022-08-06T03:44:51;94460.38;;;21.15;61.20
36932;BME280;22847;42.654;23.370;2022-08-06T03:47:25;94500.72;;;21.17;61.89
36932;BME280;22847;42.654;23.370;2022-08-06T03:49:55;94312.09;;;20.19;61.54
36932;BME280;22847;42.654;23.370;2022-08-06T03:52:26;94519.75;;;21.45;61.55
36932;BME280;22847;42.654;23.370;2022-08-06T03:54:55;94399.66;;;20.69;62.06
36932;BME280;22847;42.654;23.370;2022-08-06T03:57:25;94518.91;;;21.45;61.58
36932;BME280;22847;42.654;23.370;2022-08-06T03:59:53;94537.03;;;21.54;61.95
36932;BME280;22847;42.654;23.370;2022-08-06T04:02:19;94530.06;;;21.60;61.39
36932;BME280;22847;42.654;23.370;2022-08-06T04:04:46;94523.31;;;21.57;61.55
36932;BME280;22847;42.654;23.370;2022-08-06T04:07:13;94518.97;;;21.38;61.32
36932;BME280;22847;42.654;23.370;2022-08-06T04:09:40;94325.44;;;20.44;60.52
36932;BME280;22847;42.654;23.370;2022-08-06T04:12:06;94586.22;;;21.81;60.72
36932;BME280;22847;42.654;23.370;2022-08-06T04:14:33;94543.03;;;21.68;61.40
36932;BME280;22847;42.654;23.370;2022-08-06T04:17:01;94537.81;;;21.61;61.80
36932;BME280;22847;42.654;23.370;2022-08-06T04:19:27;94508.47;;;21.25;61.61
36932;BME280;22847;42.654;23.370;2022-08-06T04:21:55;94522.34;;;22.26;59.35
36932;BME280;22847;42.654;23.370;2022-08-06T04:24:20;94527.94;;;23.69;55.66
36932;BME280;22847;42.654;23.370;2022-08-06T04:26:49;94540.16;;;24.93;51.72
36932;BME280;22847;42.654;23.370;2022-08-06T04:29:18;94483.84;;;25.79;49.04
36932;BME280;22847;42.654;23.370;2022-08-06T04:31:46;94541.47;;;26.58;47.24
36932;BME280;22847;42.654;23.370;2022-08-06T04:34:17;94541.19;;;26.22;48.88
36932;BME280;22847;42.654;23.370;2022-08-06T04:36:44;94555.00;;;25.85;48.47
36932;BME280;22847;42.654;23.370;2022-08-06T04:39:10;94280.84;;;24.06;49.83
36932;BME280;22847;42.654;23.370;2022-08-06T04:41:36;94525.06;;;25.26;51.04
36932;BME280;22847;42.654;23.370;2022-08-06T04:44:02;94347.69;;;24.16;50.98
36932;BME280;22847;42.654;23.370;2022-08-06T04:46:27;94563.41;;;25.60;49.71
36932;BME280;22847;42.654;23.370;2022-08-06T04:48:54;94530.16;;;25.00;51.47
36932;BME280;22847;42.654;23.370;2022-08-06T04:51:22;94577.59;;;25.09;51.70
36932;BME280;22847;42.654;23.370;2022-08-06T04:53:47;94437.31;;;24.33;52.32
36932;BME280;22847;42.654;23.370;2022-08-06T04:56:13;94530.78;;;24.90;52.37
36932;BME280;22847;42.654;23.370;2022-08-06T04:58:38;94395.97;;;23.96;52.58
36932;BME280;22847;42.654;23.370;2022-08-06T05:01:04;94411.81;;;24.14;52.55
36932;BME280;22847;42.654;23.370;2022-08-06T05:03:30;94387.59;;;24.39;49.89
36932;BME280;22847;42.654;23.370;2022-08-06T05:08:40;94563.66;;;25.47;50.65
36932;BME280;22847;42.654;23.370;2022-08-06T05:11:30;94565.16;;;25.55;51.17
36932;BME280;22847;42.654;23.370;2022-08-06T05:14:02;94393.50;;;24.69;50.44
36932;BME280;22847;42.654;23.370;2022-08-06T05:16:32;94405.75;;;24.94;51.39
36932;BME280;22847;42.654;23.370;2022-08-06T05:19:01;94591.81;;;26.11;49.26
36932;BME280;22847;42.654;23.370;2022-08-06T05:21:30;94544.81;;;25.82;47.71
36932;BME280;22847;42.654;23.370;2022-08-06T05:23:57;94529.59;;;25.99;47.57
36932;BME280;22847;42.654;23.370;2022-08-06T05:26:23;94565.41;;;26.32;47.71
36932;BME280;22847;42.654;23.370;2022-08-06T05:28:49;94595.81;;;26.81;46.53
36932;BME280;22847;42.654;23.370;2022-08-06T05:31:14;94585.81;;;26.54;47.26
36932;BME280;22847;42.654;23.370;2022-08-06T05:33:41;94567.13;;;26.76;45.86
36932;BME280;22847;42.654;23.370;2022-08-06T05:38:54;94524.78;;;27.12;44.95
36932;BME280;22847;42.654;23.370;2022-08-06T05:41:20;94540.91;;;27.60;44.98
36932;BME280;22847;42.654;23.370;2022-08-06T05:43:45;94399.44;;;27.03;44.53
36932;BME280;22847;42.654;23.370;2022-08-06T05:46:15;94541.16;;;27.59;42.97
36932;BME280;22847;42.654;23.370;2022-08-06T05:49:06;94402.47;;;27.12;42.78
36932;BME280;22847;42.654;23.370;2022-08-06T05:54:03;94506.13;;;28.29;41.64
36932;BME280;22847;42.654;23.370;2022-08-06T05:56:37;94536.69;;;28.70;43.07
36932;BME280;22847;42.654;23.370;2022-08-06T05:59:09;94563.50;;;29.07;40.39
36932;BME280;22847;42.654;23.370;2022-08-06T06:01:36;94322.88;;;27.34;40.99
36932;BME280;22847;42.654;23.370;2022-08-06T06:04:02;94556.28;;;29.22;41.76
36932;BME280;22847;42.654;23.370;2022-08-06T06:06:28;94418.78;;;28.48;41.74
36932;BME280;22847;42.654;23.370;2022-08-06T06:08:54;94190.09;;;26.96;41.93
36932;BME280;22847;42.654;23.370;2022-08-06T06:11:19;94372.66;;;27.99;40.67
36932;BME280;22847;42.654;23.370;2022-08-06T06:13:46;94541.94;;;28.92;41.16
36932;BME280;22847;42.654;23.370;2022-08-06T06:16:32;94393.28;;;28.51;40.30
36932;BME280;22847;42.654;23.370;2022-08-06T06:21:57;94550.81;;;29.59;39.75
36932;BME280;22847;42.654;23.370;2022-08-06T06:27:03;94519.91;;;29.52;39.21
36932;BME280;22847;42.654;23.370;2022-08-06T06:40:46;94540.69;;;30.42;38.46
36932;BME280;22847;42.654;23.370;2022-08-06T06:43:22;94415.91;;;29.62;37.82
36932;BME280;22847;42.654;23.370;2022-08-06T06:50:54;94528.84;;;30.33;38.60
36932;BME280;22847;42.654;23.370;2022-08-06T06:53:24;94381.50;;;29.59;38.41
36932;BME280;22847;42.654;23.370;2022-08-06T06:55:55;94515.91;;;30.71;37.44
36932;BME280;22847;42.654;23.370;2022-08-06T06:58:55;94527.22;;;30.68;37.30
36932;BME280;22847;42.654;23.370;2022-08-06T07:01:21;94520.75;;;30.64;38.36
36932;BME280;22847;42.654;23.370;2022-08-06T07:03:48;94491.69;;;30.61;38.12
36932;BME280;22847;42.654;23.370;2022-08-06T07:06:16;94367.25;;;29.94;37.65
36932;BME280;22847;42.654;23.370;2022-08-06T07:08:45;94410.97;;;30.35;37.08
36932;BME280;22847;42.654;23.370;2022-08-06T07:11:18;94525.06;;;30.65;36.71
36932;BME280;22847;42.654;23.370;2022-08-06T07:13:45;94362.91;;;30.08;36.33
36932;BME280;22847;42.654;23.370;2022-08-06T07:16:13;94502.34;;;31.11;36.98
36932;BME280;22847;42.654;23.370;2022-08-06T07:18:41;94470.59;;;30.93;36.34
36932;BME280;22847;42.654;23.370;2022-08-06T07:21:08;94467.88;;;31.03;36.94
36932;BME280;22847;42.654;23.370;2022-08-06T07:23:35;94350.19;;;30.39;36.92
36932;BME280;22847;42.654;23.370;2022-08-06T07:26:01;94475.88;;;31.23;36.29
36932;BME280;22847;42.654;23.370;2022-08-06T07:28:28;94501.84;;;31.58;35.62
36932;BME280;22847;42.654;23.370;2022-08-06T07:30:59;94473.22;;;31.62;35.49
36932;BME280;22847;42.654;23.370;2022-08-06T07:33:26;94436.13;;;31.44;35.16
36932;BME280;22847;42.654;23.370;2022-08-06T07:35:52;94503.44;;;31.98;35.51
36932;BME280;22847;42.654;23.370;2022-08-06T07:38:21;94464.63;;;31.60;36.22
36932;BME280;22847;42.654;23.370;2022-08-06T07:40:51;94471.69;;;31.56;35.82
36932;BME280;22847;42.654;23.370;2022-08-06T07:43:24;94487.78;;;31.61;36.30
36932;BME280;22847;42.654;23.370;2022-08-06T07:45:52;94488.47;;;31.38;36.26
36932;BME280;22847;42.654;23.370;2022-08-06T07:48:23;94457.81;;;31.24;36.97
36932;BME280;22847;42.654;23.370;2022-08-06T07:50:51;94443.09;;;31.50;36.87
36932;BME280;22847;42.654;23.370;2022-08-06T07:53:18;94482.84;;;32.12;35.60
36932;BME280;22847;42.654;23.370;2022-08-06T07:55:45;94505.81;;;32.10;35.29
36932;BME280;22847;42.654;23.370;2022-08-06T07:58:11;94460.59;;;32.25;35.05
36932;BME280;22847;42.654;23.370;2022-08-06T08:00:38;94487.00;;;32.62;34.42
36932;BME280;22847;42.654;23.370;2022-08-06T08:03:06;94489.88;;;32.71;34.23
36932;BME280;22847;42.654;23.370;2022-08-06T08:05:50;94484.03;;;32.59;33.68
36932;BME280;22847;42.654;23.370;2022-08-06T08:08:35;94299.66;;;31.58;34.17
36932;BME280;22847;42.654;23.370;2022-08-06T08:11:01;94322.63;;;31.79;33.76
36932;BME280;22847;42.654;23.370;2022-08-06T08:13:28;94479.84;;;33.00;33.73
36932;BME280;22847;42.654;23.370;2022-08-06T08:15:57;94464.25;;;32.68;33.99
36932;BME280;22847;42.654;23.370;2022-08-06T08:18:31;94482.66;;;32.90;33.60
36932;BME280;22847;42.654;23.370;2022-08-06T08:20:58;94489.63;;;33.39;32.35
36932;BME280;22847;42.654;23.370;2022-08-06T08:23:26;94403.66;;;32.98;32.22
36932;BME280;22847;42.654;23.370;2022-08-06T08:25:55;94508.16;;;33.69;32.33
36932;BME280;22847;42.654;23.370;2022-08-06T08:28:22;94508.50;;;33.44;32.53
36932;BME280;22847;42.654;23.370;2022-08-06T08:30:48;94465.19;;;33.68;31.27
36932;BME280;22847;42.654;23.370;2022-08-06T08:33:13;94475.63;;;33.74;31.01
36932;BME280;22847;42.654;23.370;2022-08-06T08:35:40;94477.56;;;34.06;31.32
36932;BME280;22847;42.654;23.370;2022-08-06T08:38:05;94496.72;;;34.10;30.63
36932;BME280;22847;42.654;23.370;2022-08-06T08:40:32;94274.97;;;33.02;31.03
36932;BME280;22847;42.654;23.370;2022-08-06T08:43:01;94474.16;;;34.14;31.39
36932;BME280;22847;42.654;23.370;2022-08-06T08:45:28;94475.03;;;34.28;30.21
36932;BME280;22847;42.654;23.370;2022-08-06T08:47:54;94458.13;;;34.50;29.69
36932;BME280;22847;42.654;23.370;2022-08-06T08:50:27;94470.38;;;34.47;30.02
36932;BME280;22847;42.654;23.370;2022-08-06T08:53:00;94437.25;;;34.04;30.13
36932;BME280;22847;42.654;23.370;2022-08-06T08:55:26;94469.16;;;34.08;30.96
36932;BME280;22847;42.654;23.370;2022-08-06T08:57:52;94415.31;;;34.06;29.13
36932;BME280;22847;42.654;23.370;2022-08-06T09:00:19;94490.94;;;34.16;30.27
36932;BME280;22847;42.654;23.370;2022-08-06T09:02:45;94449.13;;;34.09;30.85
36932;BME280;22847;42.654;23.370;2022-08-06T09:05:11;94486.56;;;34.20;30.56
36932;BME280;22847;42.654;23.370;2022-08-06T09:07:37;94471.94;;;34.02;30.28
36932;BME280;22847;42.654;23.370;2022-08-06T09:10:06;94481.00;;;34.12;29.61
36932;BME280;22847;42.654;23.370;2022-08-06T09:12:33;94414.59;;;34.00;29.20
36932;BME280;22847;42.654;23.370;2022-08-06T09:14:58;94271.19;;;33.03;28.86
36932;BME280;22847;42.654;23.370;2022-08-06T09:17:24;94290.91;;;33.23;27.90
36932;BME280;22847;42.654;23.370;2022-08-06T09:19:51;94457.81;;;34.38;27.81
36932;BME280;22847;42.654;23.370;2022-08-06T09:22:16;94462.75;;;34.36;28.97
36932;BME280;22847;42.654;23.370;2022-08-06T09:24:42;94440.94;;;33.95;27.83
36932;BME280;22847;42.654;23.370;2022-08-06T09:27:13;94454.53;;;34.09;29.00
36932;BME280;22847;42.654;23.370;2022-08-06T09:29:53;94458.41;;;34.02;29.33
36932;BME280;22847;42.654;23.370;2022-08-06T09:32:42;94444.34;;;34.19;28.86
36932;BME280;22847;42.654;23.370;2022-08-06T09:35:28;94441.78;;;34.41;28.97
36932;BME280;22847;42.654;23.370;2022-08-06T09:38:06;94442.44;;;34.20;28.72
36932;BME280;22847;42.654;23.370;2022-08-06T09:40:33;94447.78;;;34.25;28.22
36932;BME280;22847;42.654;23.370;2022-08-06T09:42:59;94297.03;;;33.28;28.92
36932;BME280;22847;42.654;23.370;2022-08-06T09:45:25;94440.75;;;33.54;28.29
36932;BME280;22847;42.654;23.370;2022-08-06T09:48:05;94447.13;;;33.82;28.57
36932;BME280;22847;42.654;23.370;2022-08-06T09:50:40;94439.34;;;33.94;28.10
36932;BME280;22847;42.654;23.370;2022-08-06T09:53:06;94277.41;;;33.23;28.89
36932;BME280;22847;42.654;23.370;2022-08-06T09:55:32;94443.78;;;34.36;29.30
36932;BME280;22847;42.654;23.370;2022-08-06T09:58:01;94469.16;;;34.08;30.06
36932;BME280;22847;42.654;23.370;2022-08-06T10:00:33;94443.59;;;33.62;31.54
36932;BME280;22847;42.654;23.370;2022-08-06T10:03:02;94435.38;;;32.88;33.86
36932;BME280;22847;42.654;23.370;2022-08-06T10:05:28;94394.13;;;32.35;33.18
36932;BME280;22847;42.654;23.370;2022-08-06T10:08:13;94426.41;;;32.45;33.42
36932;BME280;22847;42.654;23.370;2022-08-06T10:10:51;94433.41;;;32.22;32.62
36932;BME280;22847;42.654;23.370;2022-08-06T10:13:20;94266.72;;;31.32;31.47
36932;BME280;22847;42.654;23.370;2022-08-06T10:15:49;94392.25;;;31.38;35.49
36932;BME280;22847;42.654;23.370;2022-08-06T10:18:44;94294.00;;;30.28;35.09
36932;BME280;22847;42.654;23.370;2022-08-06T10:21:18;94360.53;;;30.71;33.80
36932;BME280;22847;42.654;23.370;2022-08-06T10:23:47;94329.50;;;30.35;33.97
36932;BME280;22847;42.654;23.370;2022-08-06T10:26:16;94458.50;;;30.85;34.63
36932;BME280;22847;42.654;23.370;2022-08-06T10:28:45;94441.25;;;30.91;33.89
36932;BME280;22847;42.654;23.370;2022-08-06T10:31:13;94284.03;;;30.28;35.05
36932;BME280;22847;42.654;23.370;2022-08-06T10:34:09;94398.16;;;31.40;35.44
36932;BME280;22847;42.654;23.370;2022-08-06T10:36:40;94340.28;;;30.89;35.02
36932;BME280;22847;42.654;23.370;2022-08-06T10:39:09;94237.66;;;30.51;34.27
36932;BME280;22847;42.654;23.370;2022-08-06T10:41:35;94430.41;;;31.89;33.96
36932;BME280;22847;42.654;23.370;2022-08-06T10:44:04;94320.50;;;31.48;32.81
36932;BME280;22847;42.654;23.370;2022-08-06T10:46:31;94402.16;;;31.82;32.82
36932;BME280;22847;42.654;23.370;2022-08-06T10:48:58;94373.22;;;31.64;32.83
36932;BME280;22847;42.654;23.370;2022-08-06T10:51:24;94399.84;;;31.99;34.42
36932;BME280;22847;42.654;23.370;2022-08-06T10:53:49;94213.03;;;30.73;32.77
36932;BME280;22847;42.654;23.370;2022-08-06T10:56:17;94256.75;;;30.94;32.55
36932;BME280;22847;42.654;23.370;2022-08-06T10:58:43;94391.94;;;31.40;33.22
36932;BME280;22847;42.654;23.370;2022-08-06T11:14:38;94405.47;;;32.03;33.12
36932;BME280;22847;42.654;23.370;2022-08-06T11:17:05;94420.44;;;32.24;32.75
36932;BME280;22847;42.654;23.370;2022-08-06T11:19:45;94387.75;;;32.25;32.71
36932;BME280;22847;42.654;23.370;2022-08-06T11:24:58;94365.16;;;32.16;32.35
36932;BME280;22847;42.654;23.370;2022-08-06T11:27:50;94380.56;;;32.40;31.16
36932;BME280;22847;42.654;23.370;2022-08-06T11:30:17;94359.28;;;32.14;30.95
36932;BME280;22847;42.654;23.370;2022-08-06T11:32:52;94382.25;;;32.36;31.81
36932;BME280;22847;42.654;23.370;2022-08-06T11:38:03;94374.94;;;32.60;30.69
36932;BME280;22847;42.654;23.370;2022-08-06T11:43:48;94371.84;;;32.48;31.53
36932;BME280;22847;42.654;23.370;2022-08-06T11:47:04;94381.72;;;32.33;31.76
36932;BME280;22847;42.654;23.370;2022-08-06T11:51:55;94229.66;;;31.19;31.22
36932;BME280;22847;42.654;23.370;2022-08-06T11:54:28;94309.72;;;31.48;31.39
36932;BME280;22847;42.654;23.370;2022-08-06T11:59:44;94307.50;;;31.50;31.81
36932;BME280;22847;42.654;23.370;2022-08-06T12:02:12;94318.53;;;31.53;31.00
36932;BME280;22847;42.654;23.370;2022-08-06T12:04:38;94203.63;;;30.71;32.42
36932;BME280;22847;42.654;23.370;2022-08-06T12:07:26;94374.78;;;31.70;32.16
36932;BME280;22847;42.654;23.370;2022-08-06T12:18:01;94326.47;;;30.41;31.61
36932;BME280;22847;42.654;23.370;2022-08-06T12:20:31;94367.88;;;30.66;32.50
36932;BME280;22847;42.654;23.370;2022-08-06T12:22:58;94321.53;;;30.69;32.27
36932;BME280;22847;42.654;23.370;2022-08-06T12:25:32;94194.19;;;29.60;31.83
36932;BME280;22847;42.654;23.370;2022-08-06T12:27:58;94358.78;;;30.51;31.87
36932;BME280;22847;42.654;23.370;2022-08-06T12:30:24;94366.19;;;30.80;33.05
36932;BME280;22847;42.654;23.370;2022-08-06T12:32:59;94362.56;;;30.99;33.61
36932;BME280;22847;42.654;23.370;2022-08-06T12:35:25;94340.53;;;30.92;31.94
36932;BME280;22847;42.654;23.370;2022-08-06T12:37:50;94214.25;;;30.52;31.51
36932;BME280;22847;42.654;23.370;2022-08-06T12:40:17;94355.44;;;31.58;31.93
36932;BME280;22847;42.654;23.370;2022-08-06T12:43:09;94372.31;;;31.73;31.04
36932;BME280;22847;42.654;23.370;2022-08-06T12:45:35;94182.78;;;30.81;29.50
36932;BME280;22847;42.654;23.370;2022-08-06T12:48:07;94210.03;;;31.14;30.23
36932;BME280;22847;42.654;23.370;2022-08-06T12:50:35;94285.97;;;31.78;30.37
36932;BME280;22847;42.654;23.370;2022-08-06T12:53:13;94378.00;;;32.01;28.97
36932;BME280;22847;42.654;23.370;2022-08-06T12:55:44;94379.94;;;31.95;30.44
36932;BME280;22847;42.654;23.370;2022-08-06T12:58:12;94350.41;;;31.46;29.18
36932;BME280;22847;42.654;23.370;2022-08-06T13:00:41;94327.56;;;31.38;30.30
36932;BME280;22847;42.654;23.370;2022-08-06T13:03:07;94225.19;;;30.99;29.71
36932;BME280;22847;42.654;23.370;2022-08-06T13:05:34;94160.78;;;30.74;29.57
36932;BME280;22847;42.654;23.370;2022-08-06T13:08:00;94325.00;;;32.15;29.07
36932;BME280;22847;42.654;23.370;2022-08-06T13:10:27;94333.00;;;32.20;28.65
36932;BME280;22847;42.654;23.370;2022-08-06T13:12:57;94262.00;;;31.77;29.18
36932;BME280;22847;42.654;23.370;2022-08-06T13:15:25;94167.91;;;31.23;29.05
36932;BME280;22847;42.654;23.370;2022-08-06T13:18:14;94333.66;;;32.36;29.62
36932;BME280;22847;42.654;23.370;2022-08-06T13:20:46;94337.09;;;32.65;28.35
36932;BME280;22847;42.654;23.370;2022-08-06T13:23:13;94329.31;;;32.58;27.72
36932;BME280;22847;42.654;23.370;2022-08-06T13:25:46;94356.78;;;32.65;27.91
36932;BME280;22847;42.654;23.370;2022-08-06T13:28:13;94256.66;;;31.96;28.22
36932;BME280;22847;42.654;23.370;2022-08-06T13:30:41;94326.38;;;32.12;29.50
36932;BME280;22847;42.654;23.370;2022-08-06T13:33:20;94323.25;;;32.00;28.57
36932;BME280;22847;42.654;23.370;2022-08-06T13:35:49;94286.56;;;31.99;28.33
36932;BME280;22847;42.654;23.370;2022-08-06T13:38:34;94300.31;;;32.26;27.57
36932;BME280;22847;42.654;23.370;2022-08-06T13:41:01;94315.34;;;32.33;28.43
36932;BME280;22847;42.654;23.370;2022-08-06T13:43:42;94346.47;;;32.49;28.25
36932;BME280;22847;42.654;23.370;2022-08-06T13:46:14;94270.78;;;31.87;28.29
36932;BME280;22847;42.654;23.370;2022-08-06T13:48:44;94146.03;;;31.00;28.10
36932;BME280;22847;42.654;23.370;2022-08-06T13:51:11;94296.31;;;31.95;27.88
36932;BME280;22847;42.654;23.370;2022-08-06T13:53:37;94286.84;;;31.74;28.01
36932;BME280;22847;42.654;23.370;2022-08-06T13:56:03;94255.44;;;31.25;29.09
36932;BME280;22847;42.654;23.370;2022-08-06T13:58:30;94315.84;;;31.53;28.55
36932;BME280;22847;42.654;23.370;2022-08-06T14:00:55;94144.81;;;30.83;27.79
36932;BME280;22847;42.654;23.370;2022-08-06T14:03:20;94205.59;;;31.28;28.12
36932;BME280;22847;42.654;23.370;2022-08-06T14:05:46;94309.81;;;31.95;27.55
36932;BME280;22847;42.654;23.370;2022-08-06T14:08:11;94294.25;;;32.35;26.63
36932;BME280;22847;42.654;23.370;2022-08-06T14:10:37;94309.19;;;32.51;27.19
36932;BME280;22847;42.654;23.370;2022-08-06T14:13:03;94163.72;;;31.64;27.81
36932;BME280;22847;42.654;23.370;2022-08-06T14:15:45;94219.00;;;31.85;26.66
36932;BME280;22847;42.654;23.370;2022-08-06T14:18:10;94307.66;;;32.21;27.90
36932;BME280;22847;42.654;23.370;2022-08-06T14:20:36;94090.56;;;30.32;28.57
36932;BME280;22847;42.654;23.370;2022-08-06T14:23:02;94243.66;;;31.16;28.38
36932;BME280;22847;42.654;23.370;2022-08-06T14:25:27;94317.22;;;31.17;28.39